sensor_id;sensor_type;location;lat;lon;timestamp;P1;durP1;ratioP1;P2;durP2;ratioP2
50056;SDS011;36875;49.468;11.200;2023-08-06T00:00:40;2.85;;;2.20;;
50056;SDS011;36875;49.468;11.200;2023-08-06T00:03:05;3.60;;;2.30;;
50056;SDS011;36875;49.468;11.200;2023-08-06T00:05:32;4.57;;;2.10;;
50056;SDS011;36875;49.468;11.200;2023-08-06T00:07:58;5.40;;;2.28;;
50056;SDS011;36875;49.468;11.200;2023-08-06T00:10:23;2.58;;;2.10;;
50056;SDS011;36875;49.468;11.200;2023-08-06T00:12:49;2.92;;;2.30;;
50056;SDS011;36875;49.468;11.200;2023-08-06T00:15:14;3.55;;;2.30;;
50056;SDS011;36875;49.468;11.200;2023-08-06T00:17:40;4.32;;;2.50;;
50056;SDS011;36875;49.468;11.200;2023-08-06T00:20:06;3.92;;;2.30;;
50056;SDS011;36875;49.468;11.200;2023-08-06T00:22:34;3.58;;;2.30;;
50056;SDS011;36875;49.468;11.200;2023-08-06T00:25:00;2.92;;;2.00;;
50056;SDS011;36875;49.468;11.200;2023-08-06T00:27:26;3.15;;;2.15;;
50056;SDS011;36875;49.468;11.200;2023-08-06T00:29:52;3.60;;;2.25;;
50056;SDS011;36875;49.468;11.200;2023-08-06T00:32:18;2.47;;;2.03;;
50056;SDS011;36875;49.468;11.200;2023-08-06T00:34:43;3.30;;;2.10;;
50056;SDS011;36875;49.468;11.200;2023-08-06T00:37:09;3.42;;;2.40;;
50056;SDS011;36875;49.468;11.200;2023-08-06T00:39:36;2.88;;;2.03;;
50056;SDS011;36875;49.468;11.200;2023-08-06T00:42:02;2.90;;;2.13;;
50056;SDS011;36875;49.468;11.200;2023-08-06T00:44:28;2.83;;;2.10;;
50056;SDS011;36875;49.468;11.200;2023-08-06T00:46:53;3.00;;;2.28;;
50056;SDS011;36875;49.468;11.200;2023-08-06T00:49:20;3.35;;;2.08;;
50056;SDS011;36875;49.468;11.200;2023-08-06T00:51:45;3.90;;;2.30;;
50056;SDS011;36875;49.468;11.200;2023-08-06T00:54:12;2.75;;;2.08;;
50056;SDS011;36875;49.468;11.200;2023-08-06T00:56:39;2.30;;;1.92;;
50056;SDS011;36875;49.468;11.200;2023-08-06T00:59:07;3.33;;;2.03;;
50056;SDS011;36875;49.468;11.200;2023-08-06T01:01:34;2.58;;;2.20;;
50056;SDS011;36875;49.468;11.200;2023-08-06T01:03:59;3.38;;;2.08;;
50056;SDS011;36875;49.468;11.200;2023-08-06T01:06:29;2.13;;;1.90;;
50056;SDS011;36875;49.468;11.200;2023-08-06T01:09:04;2.42;;;2.05;;
50056;SDS011;36875;49.468;11.200;2023-08-06T01:11:42;3.25;;;2.40;;
50056;SDS011;36875;49.468;11.200;2023-08-06T01:14:18;2.40;;;1.90;;
50056;SDS011;36875;49.468;11.200;2023-08-06T01:16:48;2.13;;;1.80;;
50056;SDS011;36875;49.468;11.200;2023-08-06T01:19:16;4.97;;;2.20;;
50056;SDS011;36875;49.468;11.200;2023-08-06T01:21:43;2.60;;;2.10;;
50056;SDS011;36875;49.468;11.200;2023-08-06T01:24:08;2.50;;;1.92;;
50056;SDS011;36875;49.468;11.200;2023-08-06T01:26:36;2.75;;;2.05;;
50056;SDS011;36875;49.468;11.200;2023-08-06T01:29:08;3.42;;;2.20;;
50056;SDS011;36875;49.468;11.200;2023-08-06T01:31:41;2.17;;;1.70;;
50056;SDS011;36875;49.468;11.200;2023-08-06T01:34:09;3.30;;;2.58;;
50056;SDS011;36875;49.468;11.200;2023-08-06T01:36:38;3.17;;;2.20;;
50056;SDS011;36875;49.468;11.200;2023-08-06T01:39:08;2.22;;;2.03;;
50056;SDS011;36875;49.468;11.200;2023-08-06T01:41:34;2.90;;;2.03;;
50056;SDS011;36875;49.468;11.200;2023-08-06T01:43:59;2.97;;;2.38;;
50056;SDS011;36875;49.468;11.200;2023-08-06T01:46:25;2.45;;;1.92;;
50056;SDS011;36875;49.468;11.200;2023-08-06T01:48:50;2.63;;;2.08;;
50056;SDS011;36875;49.468;11.200;2023-08-06T01:51:16;2.08;;;1.88;;
50056;SDS011;36875;49.468;11.200;2023-08-06T01:53:44;3.15;;;2.13;;
50056;SDS011;36875;49.468;11.200;2023-08-06T01:56:09;3.28;;;2.05;;
50056;SDS011;36875;49.468;11.200;2023-08-06T01:58:35;2.47;;;1.98;;
50056;SDS011;36875;49.468;11.200;2023-08-06T02:01:00;2.53;;;2.00;;
50056;SDS011;36875;49.468;11.200;2023-08-06T02:03:26;2.28;;;2.00;;
50056;SDS011;36875;49.468;11.200;2023-08-06T02:05:51;2.53;;;2.05;;
50056;SDS011;36875;49.468;11.200;2023-08-06T02:08:17;3.40;;;2.30;;
50056;SDS011;36875;49.468;11.200;2023-08-06T02:10:44;3.03;;;1.90;;
50056;SDS011;36875;49.468;11.200;2023-08-06T02:13:09;3.47;;;2.20;;
50056;SDS011;36875;49.468;11.200;2023-08-06T02:15:35;2.92;;;1.90;;
50056;SDS011;36875;49.468;11.200;2023-08-06T02:18:00;2.70;;;2.13;;
50056;SDS011;36875;49.468;11.200;2023-08-06T02:20:26;3.22;;;2.38;;
50056;SDS011;36875;49.468;11.200;2023-08-06T02:22:51;2.88;;;2.00;;
50056;SDS011;36875;49.468;11.200;2023-08-06T02:25:17;3.30;;;1.95;;
50056;SDS011;36875;49.468;11.200;2023-08-06T02:27:43;2.90;;;2.00;;
50056;SDS011;36875;49.468;11.200;2023-08-06T02:30:09;4.22;;;1.90;;
50056;SDS011;36875;49.468;11.200;2023-08-06T02:32:35;2.65;;;1.90;;
50056;SDS011;36875;49.468;11.200;2023-08-06T02:35:01;2.60;;;2.10;;
50056;SDS011;36875;49.468;11.200;2023-08-06T02:37:26;3.22;;;1.90;;
50056;SDS011;36875;49.468;11.200;2023-08-06T02:39:52;3.35;;;1.80;;
50056;SDS011;36875;49.468;11.200;2023-08-06T02:42:17;3.00;;;2.13;;
50056;SDS011;36875;49.468;11.200;2023-08-06T02:44:44;2.33;;;1.73;;
50056;SDS011;36875;49.468;11.200;2023-08-06T02:47:09;2.65;;;1.95;;
50056;SDS011;36875;49.468;11.200;2023-08-06T02:49:35;2.05;;;1.83;;
50056;SDS011;36875;49.468;11.200;2023-08-06T02:52:00;4.10;;;1.95;;
50056;SDS011;36875;49.468;11.200;2023-08-06T02:54:26;4.32;;;1.80;;
50056;SDS011;36875;49.468;11.200;2023-08-06T02:56:51;2.78;;;1.98;;
50056;SDS011;36875;49.468;11.200;2023-08-06T02:59:17;2.47;;;2.00;;
50056;SDS011;36875;49.468;11.200;2023-08-06T03:01:44;3.42;;;2.00;;
50056;SDS011;36875;49.468;11.200;2023-08-06T03:04:09;2.72;;;1.90;;
50056;SDS011;36875;49.468;11.200;2023-08-06T03:06:35;2.45;;;1.80;;
50056;SDS011;36875;49.468;11.200;2023-08-06T03:09:00;2.13;;;1.90;;
50056;SDS011;36875;49.468;11.200;2023-08-06T03:11:25;2.72;;;1.77;;
50056;SDS011;36875;49.468;11.200;2023-08-06T03:13:51;3.55;;;2.05;;
50056;SDS011;36875;49.468;11.200;2023-08-06T03:16:16;2.83;;;2.00;;
50056;SDS011;36875;49.468;11.200;2023-08-06T03:18:43;2.42;;;1.70;;
50056;SDS011;36875;49.468;11.200;2023-08-06T03:21:09;3.28;;;2.10;;
50056;SDS011;36875;49.468;11.200;2023-08-06T03:23:34;2.00;;;1.60;;
50056;SDS011;36875;49.468;11.200;2023-08-06T03:26:00;2.08;;;1.80;;
50056;SDS011;36875;49.468;11.200;2023-08-06T03:28:26;2.70;;;1.90;;
50056;SDS011;36875;49.468;11.200;2023-08-06T03:30:58;2.22;;;1.90;;
50056;SDS011;36875;49.468;11.200;2023-08-06T03:33:24;2.30;;;1.80;;
50056;SDS011;36875;49.468;11.200;2023-08-06T03:35:51;2.60;;;1.67;;
50056;SDS011;36875;49.468;11.200;2023-08-06T03:38:16;3.25;;;1.70;;
50056;SDS011;36875;49.468;11.200;2023-08-06T03:40:42;2.75;;;1.80;;
50056;SDS011;36875;49.468;11.200;2023-08-06T03:43:08;2.67;;;1.80;;
50056;SDS011;36875;49.468;11.200;2023-08-06T03:45:33;4.70;;;2.17;;
50056;SDS011;36875;49.468;11.200;2023-08-06T03:47:59;3.72;;;1.80;;
50056;SDS011;36875;49.468;11.200;2023-08-06T03:50:24;2.65;;;2.00;;
50056;SDS011;36875;49.468;11.200;2023-08-06T03:52:51;2.55;;;1.95;;
50056;SDS011;36875;49.468;11.200;2023-08-06T03:55:17;2.70;;;1.85;;
50056;SDS011;36875;49.468;11.200;2023-08-06T03:57:42;2.30;;;2.10;;
50056;SDS011;36875;49.468;11.200;2023-08-06T04:00:08;2.08;;;1.70;;
50056;SDS011;36875;49.468;11.200;2023-08-06T04:02:34;2.88;;;1.70;;
50056;SDS011;36875;49.468;11.200;2023-08-06T04:05:00;2.75;;;1.92;;
50056;SDS011;36875;49.468;11.200;2023-08-06T04:07:25;2.20;;;1.80;;
50056;SDS011;36875;49.468;11.200;2023-08-06T04:09:56;2.30;;;1.80;;
50056;SDS011;36875;49.468;11.200;2023-08-06T04:12:23;2.63;;;2.08;;
50056;SDS011;36875;49.468;11.200;2023-08-06T04:14:49;2.00;;;1.77;;
50056;SDS011;36875;49.468;11.200;2023-08-06T04:17:15;2.25;;;1.80;;
50056;SDS011;36875;49.468;11.200;2023-08-06T04:19:40;3.15;;;2.13;;
50056;SDS011;36875;49.468;11.200;2023-08-06T04:22:07;2.55;;;1.70;;
50056;SDS011;36875;49.468;11.200;2023-08-06T04:24:33;3.10;;;1.85;;
50056;SDS011;36875;49.468;11.200;2023-08-06T04:26:59;2.83;;;1.80;;
50056;SDS011;36875;49.468;11.200;2023-08-06T04:29:25;2.03;;;1.58;;
50056;SDS011;36875;49.468;11.200;2023-08-06T04:31:50;3.38;;;1.98;;
50056;SDS011;36875;49.468;11.200;2023-08-06T04:34:16;2.08;;;1.70;;
50056;SDS011;36875;49.468;11.200;2023-08-06T04:36:41;1.90;;;1.55;;
50056;SDS011;36875;49.468;11.200;2023-08-06T04:39:07;2.22;;;1.80;;
50056;SDS011;36875;49.468;11.200;2023-08-06T04:41:32;2.72;;;1.65;;
50056;SDS011;36875;49.468;11.200;2023-08-06T04:43:59;1.90;;;1.60;;
50056;SDS011;36875;49.468;11.200;2023-08-06T04:46:24;2.15;;;1.70;;
50056;SDS011;36875;49.468;11.200;2023-08-06T04:48:50;2.35;;;1.60;;
50056;SDS011;36875;49.468;11.200;2023-08-06T04:51:15;2.88;;;1.85;;
50056;SDS011;36875;49.468;11.200;2023-08-06T04:53:41;2.15;;;1.85;;
50056;SDS011;36875;49.468;11.200;2023-08-06T04:56:06;2.38;;;1.92;;
50056;SDS011;36875;49.468;11.200;2023-08-06T04:58:32;2.22;;;1.73;;
50056;SDS011;36875;49.468;11.200;2023-08-06T05:00:59;2.38;;;1.70;;
50056;SDS011;36875;49.468;11.200;2023-08-06T05:03:24;4.70;;;1.63;;
50056;SDS011;36875;49.468;11.200;2023-08-06T05:05:50;2.60;;;1.70;;
50056;SDS011;36875;49.468;11.200;2023-08-06T05:08:15;2.17;;;1.70;;
50056;SDS011;36875;49.468;11.200;2023-08-06T05:10:42;2.67;;;1.80;;
50056;SDS011;36875;49.468;11.200;2023-08-06T05:13:07;1.95;;;1.67;;
50056;SDS011;36875;49.468;11.200;2023-08-06T05:15:33;1.80;;;1.65;;
50056;SDS011;36875;49.468;11.200;2023-08-06T05:18:00;2.55;;;1.85;;
50056;SDS011;36875;49.468;11.200;2023-08-06T05:20:27;1.70;;;1.60;;
50056;SDS011;36875;49.468;11.200;2023-08-06T05:22:52;2.35;;;1.80;;
50056;SDS011;36875;49.468;11.200;2023-08-06T05:25:18;2.42;;;1.90;;
50056;SDS011;36875;49.468;11.200;2023-08-06T05:27:43;1.60;;;1.50;;
50056;SDS011;36875;49.468;11.200;2023-08-06T05:30:09;6.78;;;2.42;;
50056;SDS011;36875;49.468;11.200;2023-08-06T05:32:35;2.08;;;1.70;;
50056;SDS011;36875;49.468;11.200;2023-08-06T05:35:02;2.45;;;1.70;;
50056;SDS011;36875;49.468;11.200;2023-08-06T05:37:28;2.08;;;1.60;;
50056;SDS011;36875;49.468;11.200;2023-08-06T05:39:53;2.65;;;1.80;;
50056;SDS011;36875;49.468;11.200;2023-08-06T05:42:19;2.20;;;1.70;;
50056;SDS011;36875;49.468;11.200;2023-08-06T05:44:44;1.95;;;1.70;;
50056;SDS011;36875;49.468;11.200;2023-08-06T05:47:10;2.33;;;1.67;;
50056;SDS011;36875;49.468;11.200;2023-08-06T05:49:35;1.85;;;1.60;;
50056;SDS011;36875;49.468;11.200;2023-08-06T05:52:02;1.60;;;1.40;;
50056;SDS011;36875;49.468;11.200;2023-08-06T05:54:31;2.28;;;1.35;;
50056;SDS011;36875;49.468;11.200;2023-08-06T05:56:56;1.90;;;1.40;;
50056;SDS011;36875;49.468;11.200;2023-08-06T05:59:22;1.88;;;1.48;;
50056;SDS011;36875;49.468;11.200;2023-08-06T06:01:47;2.40;;;1.60;;
50056;SDS011;36875;49.468;11.200;2023-08-06T06:04:13;2.67;;;1.75;;
50056;SDS011;36875;49.468;11.200;2023-08-06T06:06:38;2.30;;;1.52;;
50056;SDS011;36875;49.468;11.200;2023-08-06T06:09:05;2.20;;;1.60;;
50056;SDS011;36875;49.468;11.200;2023-08-06T06:11:31;2.75;;;1.90;;
50056;SDS011;36875;49.468;11.200;2023-08-06T06:13:56;1.83;;;1.58;;
50056;SDS011;36875;49.468;11.200;2023-08-06T06:16:22;2.75;;;1.58;;
50056;SDS011;36875;49.468;11.200;2023-08-06T06:18:47;2.08;;;1.75;;
50056;SDS011;36875;49.468;11.200;2023-08-06T06:21:13;1.80;;;1.70;;
50056;SDS011;36875;49.468;11.200;2023-08-06T06:23:38;1.98;;;1.60;;
50056;SDS011;36875;49.468;11.200;2023-08-06T06:26:05;1.73;;;1.60;;
50056;SDS011;36875;49.468;11.200;2023-08-06T06:28:31;2.08;;;1.60;;
50056;SDS011;36875;49.468;11.200;2023-08-06T06:30:59;2.20;;;1.60;;
50056;SDS011;36875;49.468;11.200;2023-08-06T06:33:25;1.80;;;1.38;;
50056;SDS011;36875;49.468;11.200;2023-08-06T06:35:50;1.85;;;1.60;;
50056;SDS011;36875;49.468;11.200;2023-08-06T06:38:16;2.55;;;1.60;;
50056;SDS011;36875;49.468;11.200;2023-08-06T06:40:41;2.22;;;1.50;;
50056;SDS011;36875;49.468;11.200;2023-08-06T06:43:08;1.58;;;1.35;;
50056;SDS011;36875;49.468;11.200;2023-08-06T06:45:34;2.33;;;1.50;;
50056;SDS011;36875;49.468;11.200;2023-08-06T06:47:59;2.15;;;1.40;;
50056;SDS011;36875;49.468;11.200;2023-08-06T06:50:24;2.75;;;1.52;;
50056;SDS011;36875;49.468;11.200;2023-08-06T06:52:51;1.98;;;1.70;;
50056;SDS011;36875;49.468;11.200;2023-08-06T06:55:16;1.85;;;1.50;;
50056;SDS011;36875;49.468;11.200;2023-08-06T06:57:42;2.42;;;1.42;;
50056;SDS011;36875;49.468;11.200;2023-08-06T07:00:09;2.67;;;1.42;;
50056;SDS011;36875;49.468;11.200;2023-08-06T07:02:35;2.65;;;1.50;;
50056;SDS011;36875;49.468;11.200;2023-08-06T07:05:01;1.60;;;1.45;;
50056;SDS011;36875;49.468;11.200;2023-08-06T07:07:26;2.80;;;1.40;;
50056;SDS011;36875;49.468;11.200;2023-08-06T07:09:51;3.45;;;1.58;;
50056;SDS011;36875;49.468;11.200;2023-08-06T07:12:17;2.33;;;1.67;;
50056;SDS011;36875;49.468;11.200;2023-08-06T07:14:42;2.30;;;1.52;;
50056;SDS011;36875;49.468;11.200;2023-08-06T07:17:09;2.70;;;1.80;;
50056;SDS011;36875;49.468;11.200;2023-08-06T07:19:35;2.45;;;1.65;;
50056;SDS011;36875;49.468;11.200;2023-08-06T07:22:00;2.83;;;1.38;;
50056;SDS011;36875;49.468;11.200;2023-08-06T07:24:25;2.80;;;1.70;;
50056;SDS011;36875;49.468;11.200;2023-08-06T07:26:51;3.83;;;1.70;;
50056;SDS011;36875;49.468;11.200;2023-08-06T07:29:17;4.00;;;1.60;;
50056;SDS011;36875;49.468;11.200;2023-08-06T07:31:46;2.38;;;1.50;;
50056;SDS011;36875;49.468;11.200;2023-08-06T07:34:13;3.05;;;1.55;;
50056;SDS011;36875;49.468;11.200;2023-08-06T07:36:38;3.75;;;1.58;;
50056;SDS011;36875;49.468;11.200;2023-08-06T07:39:06;3.67;;;2.05;;
50056;SDS011;36875;49.468;11.200;2023-08-06T07:41:32;2.80;;;1.40;;
50056;SDS011;36875;49.468;11.200;2023-08-06T07:43:57;3.72;;;1.80;;
50056;SDS011;36875;49.468;11.200;2023-08-06T07:46:23;2.47;;;1.80;;
50056;SDS011;36875;49.468;11.200;2023-08-06T07:48:48;2.40;;;1.50;;
50056;SDS011;36875;49.468;11.200;2023-08-06T07:51:15;5.03;;;1.70;;
50056;SDS011;36875;49.468;11.200;2023-08-06T07:53:41;3.35;;;1.50;;
50056;SDS011;36875;49.468;11.200;2023-08-06T07:56:06;4.18;;;1.70;;
50056;SDS011;36875;49.468;11.200;2023-08-06T07:58:32;5.00;;;1.70;;
50056;SDS011;36875;49.468;11.200;2023-08-06T08:00:57;6.05;;;1.80;;
50056;SDS011;36875;49.468;11.200;2023-08-06T08:03:23;3.45;;;1.77;;
50056;SDS011;36875;49.468;11.200;2023-08-06T08:05:48;2.80;;;1.60;;
50056;SDS011;36875;49.468;11.200;2023-08-06T08:08:15;4.28;;;1.80;;
50056;SDS011;36875;49.468;11.200;2023-08-06T08:10:41;4.55;;;1.70;;
50056;SDS011;36875;49.468;11.200;2023-08-06T08:13:07;4.65;;;1.98;;
50056;SDS011;36875;49.468;11.200;2023-08-06T08:15:32;4.70;;;1.75;;
50056;SDS011;36875;49.468;11.200;2023-08-06T08:17:59;6.05;;;2.10;;
50056;SDS011;36875;49.468;11.200;2023-08-06T08:20:25;6.22;;;2.00;;
50056;SDS011;36875;49.468;11.200;2023-08-06T08:22:56;7.25;;;1.92;;
50056;SDS011;36875;49.468;11.200;2023-08-06T08:25:23;5.55;;;1.77;;
50056;SDS011;36875;49.468;11.200;2023-08-06T08:27:49;3.78;;;2.03;;
50056;SDS011;36875;49.468;11.200;2023-08-06T08:30:14;3.60;;;2.00;;
50056;SDS011;36875;49.468;11.200;2023-08-06T08:32:40;6.57;;;1.73;;
50056;SDS011;36875;49.468;11.200;2023-08-06T08:35:05;4.65;;;1.50;;
50056;SDS011;36875;49.468;11.200;2023-08-06T08:37:31;6.22;;;1.70;;
50056;SDS011;36875;49.468;11.200;2023-08-06T08:39:57;5.45;;;1.88;;
50056;SDS011;36875;49.468;11.200;2023-08-06T08:42:23;5.07;;;1.90;;
50056;SDS011;36875;49.468;11.200;2023-08-06T08:44:49;3.92;;;1.58;;
50056;SDS011;36875;49.468;11.200;2023-08-06T08:47:15;3.28;;;1.48;;
50056;SDS011;36875;49.468;11.200;2023-08-06T08:49:41;2.05;;;1.60;;
50056;SDS011;36875;49.468;11.200;2023-08-06T08:52:08;4.00;;;1.42;;
50056;SDS011;36875;49.468;11.200;2023-08-06T08:54:37;3.65;;;1.75;;
50056;SDS011;36875;49.468;11.200;2023-08-06T08:57:03;4.43;;;1.77;;
50056;SDS011;36875;49.468;11.200;2023-08-06T08:59:32;3.03;;;1.20;;
50056;SDS011;36875;49.468;11.200;2023-08-06T09:01:58;2.67;;;1.33;;
50056;SDS011;36875;49.468;11.200;2023-08-06T09:04:26;5.05;;;1.50;;
50056;SDS011;36875;49.468;11.200;2023-08-06T09:06:53;4.28;;;1.30;;
50056;SDS011;36875;49.468;11.200;2023-08-06T09:09:22;3.90;;;1.23;;
50056;SDS011;36875;49.468;11.200;2023-08-06T09:11:51;1.92;;;1.23;;
50056;SDS011;36875;49.468;11.200;2023-08-06T09:14:17;6.72;;;1.20;;
50056;SDS011;36875;49.468;11.200;2023-08-06T09:16:45;2.95;;;1.27;;
50056;SDS011;36875;49.468;11.200;2023-08-06T09:19:12;3.22;;;0.93;;
50056;SDS011;36875;49.468;11.200;2023-08-06T09:21:38;2.88;;;1.10;;
50056;SDS011;36875;49.468;11.200;2023-08-06T09:24:07;5.68;;;1.20;;
50056;SDS011;36875;49.468;11.200;2023-08-06T09:26:33;4.75;;;0.98;;
50056;SDS011;36875;49.468;11.200;2023-08-06T09:28:59;2.78;;;1.00;;
50056;SDS011;36875;49.468;11.200;2023-08-06T09:31:25;9.10;;;1.23;;
50056;SDS011;36875;49.468;11.200;2023-08-06T09:33:59;9.32;;;1.10;;
50056;SDS011;36875;49.468;11.200;2023-08-06T09:36:26;8.07;;;1.30;;
50056;SDS011;36875;49.468;11.200;2023-08-06T09:38:52;7.18;;;1.65;;
50056;SDS011;36875;49.468;11.200;2023-08-06T09:41:25;6.95;;;1.05;;
50056;SDS011;36875;49.468;11.200;2023-08-06T09:43:52;7.30;;;1.38;;
50056;SDS011;36875;49.468;11.200;2023-08-06T09:46:18;6.50;;;1.10;;
50056;SDS011;36875;49.468;11.200;2023-08-06T09:48:46;9.55;;;1.38;;
50056;SDS011;36875;49.468;11.200;2023-08-06T09:51:15;8.20;;;1.30;;
50056;SDS011;36875;49.468;11.200;2023-08-06T09:53:41;4.50;;;0.95;;
50056;SDS011;36875;49.468;11.200;2023-08-06T09:56:07;9.32;;;1.10;;
50056;SDS011;36875;49.468;11.200;2023-08-06T09:58:34;6.97;;;1.10;;
50056;SDS011;36875;49.468;11.200;2023-08-06T10:01:01;2.63;;;0.80;;
50056;SDS011;36875;49.468;11.200;2023-08-06T10:03:28;4.88;;;1.05;;
50056;SDS011;36875;49.468;11.200;2023-08-06T10:05:55;7.68;;;1.17;;
50056;SDS011;36875;49.468;11.200;2023-08-06T10:08:22;7.18;;;1.40;;
50056;SDS011;36875;49.468;11.200;2023-08-06T10:10:48;8.25;;;1.45;;
50056;SDS011;36875;49.468;11.200;2023-08-06T10:13:13;13.05;;;2.60;;
50056;SDS011;36875;49.468;11.200;2023-08-06T10:15:40;9.90;;;1.30;;
50056;SDS011;36875;49.468;11.200;2023-08-06T10:18:06;10.10;;;1.30;;
50056;SDS011;36875;49.468;11.200;2023-08-06T10:20:32;6.22;;;1.17;;
50056;SDS011;36875;49.468;11.200;2023-08-06T10:23:01;6.55;;;1.50;;
50056;SDS011;36875;49.468;11.200;2023-08-06T10:25:31;5.72;;;1.00;;
50056;SDS011;36875;49.468;11.200;2023-08-06T10:27:58;8.88;;;1.05;;
50056;SDS011;36875;49.468;11.200;2023-08-06T10:30:24;5.00;;;1.05;;
50056;SDS011;36875;49.468;11.200;2023-08-06T10:32:51;6.75;;;1.33;;
50056;SDS011;36875;49.468;11.200;2023-08-06T10:35:28;4.25;;;0.90;;
50056;SDS011;36875;49.468;11.200;2023-08-06T10:37:58;8.82;;;1.02;;
50056;SDS011;36875;49.468;11.200;2023-08-06T10:40:24;8.15;;;1.20;;
50056;SDS011;36875;49.468;11.200;2023-08-06T10:42:52;4.60;;;1.08;;
50056;SDS011;36875;49.468;11.200;2023-08-06T10:45:18;11.10;;;1.35;;
50056;SDS011;36875;49.468;11.200;2023-08-06T10:47:45;10.60;;;1.48;;
50056;SDS011;36875;49.468;11.200;2023-08-06T10:50:11;10.38;;;1.60;;
50056;SDS011;36875;49.468;11.200;2023-08-06T10:52:44;9.25;;;1.08;;
50056;SDS011;36875;49.468;11.200;2023-08-06T10:55:10;8.48;;;1.83;;
50056;SDS011;36875;49.468;11.200;2023-08-06T10:57:35;12.75;;;1.60;;
50056;SDS011;36875;49.468;11.200;2023-08-06T11:00:03;7.18;;;1.30;;
50056;SDS011;36875;49.468;11.200;2023-08-06T11:02:30;10.88;;;1.65;;
50056;SDS011;36875;49.468;11.200;2023-08-06T11:05:04;14.00;;;1.77;;
50056;SDS011;36875;49.468;11.200;2023-08-06T11:07:30;8.02;;;1.33;;
50056;SDS011;36875;49.468;11.200;2023-08-06T11:10:00;8.10;;;1.17;;
50056;SDS011;36875;49.468;11.200;2023-08-06T11:12:28;5.05;;;1.20;;
50056;SDS011;36875;49.468;11.200;2023-08-06T11:14:54;12.18;;;1.40;;
50056;SDS011;36875;49.468;11.200;2023-08-06T11:17:22;5.68;;;1.30;;
50056;SDS011;36875;49.468;11.200;2023-08-06T11:19:47;4.07;;;0.93;;
50056;SDS011;36875;49.468;11.200;2023-08-06T11:22:13;6.68;;;1.13;;
50056;SDS011;36875;49.468;11.200;2023-08-06T11:24:39;8.43;;;1.17;;
50056;SDS011;36875;49.468;11.200;2023-08-06T11:27:10;14.05;;;2.00;;
50056;SDS011;36875;49.468;11.200;2023-08-06T11:29:37;6.60;;;1.17;;
50056;SDS011;36875;49.468;11.200;2023-08-06T11:32:03;5.25;;;1.20;;
50056;SDS011;36875;49.468;11.200;2023-08-06T11:34:30;7.95;;;1.00;;
50056;SDS011;36875;49.468;11.200;2023-08-06T11:36:56;11.07;;;1.25;;
50056;SDS011;36875;49.468;11.200;2023-08-06T11:39:22;12.70;;;1.40;;
50056;SDS011;36875;49.468;11.200;2023-08-06T11:41:48;7.75;;;1.35;;
50056;SDS011;36875;49.468;11.200;2023-08-06T11:44:14;4.63;;;1.00;;
50056;SDS011;36875;49.468;11.200;2023-08-06T11:46:52;3.83;;;0.90;;
50056;SDS011;36875;49.468;11.200;2023-08-06T11:49:20;2.53;;;0.90;;
50056;SDS011;36875;49.468;11.200;2023-08-06T11:51:48;5.90;;;1.05;;
50056;SDS011;36875;49.468;11.200;2023-08-06T11:54:14;4.82;;;0.70;;
50056;SDS011;36875;49.468;11.200;2023-08-06T11:56:40;6.40;;;1.00;;
50056;SDS011;36875;49.468;11.200;2023-08-06T11:59:05;5.70;;;0.82;;
50056;SDS011;36875;49.468;11.200;2023-08-06T12:01:31;8.23;;;1.02;;
50056;SDS011;36875;49.468;11.200;2023-08-06T12:03:58;3.95;;;0.80;;
50056;SDS011;36875;49.468;11.200;2023-08-06T12:06:26;6.00;;;1.00;;
50056;SDS011;36875;49.468;11.200;2023-08-06T12:08:53;3.50;;;0.90;;
50056;SDS011;36875;49.468;11.200;2023-08-06T12:11:20;4.30;;;1.33;;
50056;SDS011;36875;49.468;11.200;2023-08-06T12:13:50;2.92;;;0.80;;
50056;SDS011;36875;49.468;11.200;2023-08-06T12:16:16;5.03;;;1.15;;
50056;SDS011;36875;49.468;11.200;2023-08-06T12:18:43;4.40;;;1.05;;
50056;SDS011;36875;49.468;11.200;2023-08-06T12:21:09;8.00;;;1.15;;
50056;SDS011;36875;49.468;11.200;2023-08-06T12:23:34;4.70;;;1.17;;
50056;SDS011;36875;49.468;11.200;2023-08-06T12:26:02;6.43;;;1.30;;
50056;SDS011;36875;49.468;11.200;2023-08-06T12:28:28;8.77;;;1.55;;
50056;SDS011;36875;49.468;11.200;2023-08-06T12:30:53;4.03;;;0.95;;
50056;SDS011;36875;49.468;11.200;2023-08-06T12:33:20;4.78;;;1.35;;
50056;SDS011;36875;49.468;11.200;2023-08-06T12:35:45;5.05;;;1.10;;
50056;SDS011;36875;49.468;11.200;2023-08-06T12:38:11;3.90;;;1.08;;
50056;SDS011;36875;49.468;11.200;2023-08-06T12:40:38;7.47;;;1.30;;
50056;SDS011;36875;49.468;11.200;2023-08-06T12:43:05;7.25;;;1.58;;
50056;SDS011;36875;49.468;11.200;2023-08-06T12:45:30;6.80;;;1.35;;
50056;SDS011;36875;49.468;11.200;2023-08-06T12:47:56;7.28;;;1.23;;
50056;SDS011;36875;49.468;11.200;2023-08-06T12:50:21;4.20;;;1.10;;
50056;SDS011;36875;49.468;11.200;2023-08-06T12:52:47;5.75;;;1.10;;
50056;SDS011;36875;49.468;11.200;2023-08-06T12:55:12;7.95;;;1.30;;
50056;SDS011;36875;49.468;11.200;2023-08-06T12:57:38;5.07;;;1.10;;
50056;SDS011;36875;49.468;11.200;2023-08-06T13:00:06;3.35;;;1.10;;
50056;SDS011;36875;49.468;11.200;2023-08-06T13:02:32;4.80;;;1.80;;
50056;SDS011;36875;49.468;11.200;2023-08-06T13:04:57;6.05;;;1.25;;
50056;SDS011;36875;49.468;11.200;2023-08-06T13:07:23;4.93;;;1.10;;
50056;SDS011;36875;49.468;11.200;2023-08-06T13:09:48;5.28;;;1.05;;
50056;SDS011;36875;49.468;11.200;2023-08-06T13:12:14;6.95;;;1.73;;
50056;SDS011;36875;49.468;11.200;2023-08-06T13:14:39;4.03;;;1.23;;
50056;SDS011;36875;49.468;11.200;2023-08-06T13:17:06;3.53;;;0.93;;
50056;SDS011;36875;49.468;11.200;2023-08-06T13:19:32;4.38;;;1.20;;
50056;SDS011;36875;49.468;11.200;2023-08-06T13:21:58;4.45;;;1.20;;
50056;SDS011;36875;49.468;11.200;2023-08-06T13:24:28;5.32;;;1.30;;
50056;SDS011;36875;49.468;11.200;2023-08-06T13:26:54;3.15;;;1.10;;
50056;SDS011;36875;49.468;11.200;2023-08-06T13:29:20;4.72;;;1.40;;
50056;SDS011;36875;49.468;11.200;2023-08-06T13:31:45;6.10;;;1.20;;
50056;SDS011;36875;49.468;11.200;2023-08-06T13:34:12;3.95;;;0.80;;
50056;SDS011;36875;49.468;11.200;2023-08-06T13:36:38;5.93;;;1.02;;
50056;SDS011;36875;49.468;11.200;2023-08-06T13:39:03;4.07;;;1.23;;
50056;SDS011;36875;49.468;11.200;2023-08-06T13:41:30;7.15;;;1.55;;
50056;SDS011;36875;49.468;11.200;2023-08-06T13:43:55;2.75;;;0.75;;
50056;SDS011;36875;49.468;11.200;2023-08-06T13:46:21;2.92;;;0.93;;
50056;SDS011;36875;49.468;11.200;2023-08-06T13:48:47;3.75;;;1.00;;
50056;SDS011;36875;49.468;11.200;2023-08-06T13:51:17;2.63;;;1.00;;
50056;SDS011;36875;49.468;11.200;2023-08-06T13:53:43;4.60;;;1.65;;
50056;SDS011;36875;49.468;11.200;2023-08-06T13:56:09;3.03;;;1.10;;
50056;SDS011;36875;49.468;11.200;2023-08-06T13:58:36;3.88;;;1.00;;
50056;SDS011;36875;49.468;11.200;2023-08-06T14:01:01;3.53;;;0.80;;
50056;SDS011;36875;49.468;11.200;2023-08-06T14:03:27;3.22;;;0.90;;
50056;SDS011;36875;49.468;11.200;2023-08-06T14:05:52;5.93;;;1.27;;
50056;SDS011;36875;49.468;11.200;2023-08-06T14:08:22;2.78;;;1.00;;
50056;SDS011;36875;49.468;11.200;2023-08-06T14:10:48;2.53;;;0.90;;
50056;SDS011;36875;49.468;11.200;2023-08-06T14:13:13;3.00;;;0.80;;
50056;SDS011;36875;49.468;11.200;2023-08-06T14:15:39;3.30;;;0.85;;
50056;SDS011;36875;49.468;11.200;2023-08-06T14:18:05;3.03;;;1.30;;
50056;SDS011;36875;49.468;11.200;2023-08-06T14:20:30;5.03;;;1.05;;
50056;SDS011;36875;49.468;11.200;2023-08-06T14:22:56;2.55;;;1.10;;
50056;SDS011;36875;49.468;11.200;2023-08-06T14:25:25;3.28;;;0.82;;
50056;SDS011;36875;49.468;11.200;2023-08-06T14:27:51;1.80;;;0.93;;